sensor_id;sensor_type;location;lat;lon;timestamp;P1;durP1;ratioP1;P2;durP2;ratioP2
16689;SDS011;8458;52.220;9.884;2023-03-15T00:01:10;4.33;;;1.20;;
16689;SDS011;8458;52.220;9.884;2023-03-15T00:03:41;3.67;;;0.97;;
16689;SDS011;8458;52.220;9.884;2023-03-15T00:06:07;3.77;;;1.17;;
16689;SDS011;8458;52.220;9.884;2023-03-15T00:08:34;2.90;;;1.00;;
16689;SDS011;8458;52.220;9.884;2023-03-15T00:11:01;3.13;;;1.10;;
16689;SDS011;8458;52.220;9.884;2023-03-15T00:13:28;3.47;;;1.20;;
16689;SDS011;8458;52.220;9.884;2023-03-15T00:15:55;5.27;;;1.40;;
16689;SDS011;8458;52.220;9.884;2023-03-15T00:18:23;3.07;;;1.03;;
16689;SDS011;8458;52.220;9.884;2023-03-15T00:20:51;2.73;;;1.10;;
16689;SDS011;8458;52.220;9.884;2023-03-15T00:23:18;3.33;;;1.30;;
16689;SDS011;8458;52.220;9.884;2023-03-15T00:25:44;2.40;;;0.90;;
16689;SDS011;8458;52.220;9.884;2023-03-15T00:28:12;3.83;;;1.17;;
16689;SDS011;8458;52.220;9.884;2023-03-15T00:30:39;3.23;;;1.03;;
16689;SDS011;8458;52.220;9.884;2023-03-15T00:33:05;3.03;;;1.10;;
16689;SDS011;8458;52.220;9.884;2023-03-15T00:35:32;4.50;;;1.47;;
16689;SDS011;8458;52.220;9.884;2023-03-15T00:38:05;4.97;;;1.10;;
16689;SDS011;8458;52.220;9.884;2023-03-15T00:40:31;3.53;;;1.30;;
16689;SDS011;8458;52.220;9.884;2023-03-15T00:42:58;7.03;;;1.17;;
16689;SDS011;8458;52.220;9.884;2023-03-15T00:45:24;3.60;;;1.27;;
16689;SDS011;8458;52.220;9.884;2023-03-15T00:47:51;2.50;;;0.83;;
16689;SDS011;8458;52.220;9.884;2023-03-15T00:50:19;4.37;;;1.17;;
16689;SDS011;8458;52.220;9.884;2023-03-15T00:52:47;6.20;;;1.10;;
16689;SDS011;8458;52.220;9.884;2023-03-15T00:55:16;3.70;;;1.47;;
16689;SDS011;8458;52.220;9.884;2023-03-15T00:57:44;3.80;;;1.20;;
16689;SDS011;8458;52.220;9.884;2023-03-15T01:00:12;2.77;;;1.00;;
16689;SDS011;8458;52.220;9.884;2023-03-15T01:02:41;4.60;;;1.17;;
16689;SDS011;8458;52.220;9.884;2023-03-15T01:05:07;4.17;;;1.33;;
16689;SDS011;8458;52.220;9.884;2023-03-15T01:07:34;5.33;;;1.10;;
16689;SDS011;8458;52.220;9.884;2023-03-15T01:10:01;3.67;;;0.90;;
16689;SDS011;8458;52.220;9.884;2023-03-15T01:12:32;3.40;;;1.00;;
16689;SDS011;8458;52.220;9.884;2023-03-15T01:14:59;3.80;;;1.10;;
16689;SDS011;8458;52.220;9.884;2023-03-15T01:17:26;4.13;;;1.40;;
16689;SDS011;8458;52.220;9.884;2023-03-15T01:19:52;3.50;;;1.10;;
16689;SDS011;8458;52.220;9.884;2023-03-15T01:22:19;5.37;;;1.10;;
16689;SDS011;8458;52.220;9.884;2023-03-15T01:24:46;3.70;;;1.30;;
16689;SDS011;8458;52.220;9.884;2023-03-15T01:27:13;4.37;;;1.20;;
16689;SDS011;8458;52.220;9.884;2023-03-15T01:29:41;5.77;;;1.40;;
16689;SDS011;8458;52.220;9.884;2023-03-15T01:32:07;3.37;;;1.30;;
16689;SDS011;8458;52.220;9.884;2023-03-15T01:34:34;3.77;;;1.30;;
16689;SDS011;8458;52.220;9.884;2023-03-15T01:37:01;3.57;;;1.80;;
16689;SDS011;8458;52.220;9.884;2023-03-15T01:39:28;4.70;;;1.20;;
16689;SDS011;8458;52.220;9.884;2023-03-15T01:41:55;5.07;;;1.20;;
16689;SDS011;8458;52.220;9.884;2023-03-15T01:44:23;3.23;;;1.50;;
16689;SDS011;8458;52.220;9.884;2023-03-15T01:46:51;3.17;;;1.00;;
16689;SDS011;8458;52.220;9.884;2023-03-15T01:49:18;4.57;;;1.10;;
16689;SDS011;8458;52.220;9.884;2023-03-15T01:51:47;1.67;;;0.83;;
16689;SDS011;8458;52.220;9.884;2023-03-15T01:54:17;2.80;;;1.27;;
16689;SDS011;8458;52.220;9.884;2023-03-15T01:56:49;3.90;;;1.10;;
16689;SDS011;8458;52.220;9.884;2023-03-15T01:59:19;2.73;;;1.10;;
16689;SDS011;8458;52.220;9.884;2023-03-15T02:01:52;2.33;;;1.17;;
16689;SDS011;8458;52.220;9.884;2023-03-15T02:04:21;6.17;;;1.20;;
16689;SDS011;8458;52.220;9.884;2023-03-15T02:06:54;3.90;;;1.07;;
16689;SDS011;8458;52.220;9.884;2023-03-15T02:09:24;3.87;;;1.20;;
16689;SDS011;8458;52.220;9.884;2023-03-15T02:11:56;3.87;;;0.80;;
16689;SDS011;8458;52.220;9.884;2023-03-15T02:14:22;5.37;;;0.93;;
16689;SDS011;8458;52.220;9.884;2023-03-15T02:16:49;4.70;;;1.27;;
16689;SDS011;8458;52.220;9.884;2023-03-15T02:19:22;3.23;;;0.90;;
16689;SDS011;8458;52.220;9.884;2023-03-15T02:21:57;3.67;;;1.10;;
16689;SDS011;8458;52.220;9.884;2023-03-15T02:24:35;4.63;;;1.60;;
16689;SDS011;8458;52.220;9.884;2023-03-15T02:27:09;4.03;;;1.40;;
16689;SDS011;8458;52.220;9.884;2023-03-15T02:29:38;4.80;;;1.17;;
16689;SDS011;8458;52.220;9.884;2023-03-15T02:32:06;3.23;;;1.10;;
16689;SDS011;8458;52.220;9.884;2023-03-15T02:34:33;5.00;;;1.20;;
16689;SDS011;8458;52.220;9.884;2023-03-15T02:36:59;4.10;;;1.20;;
16689;SDS011;8458;52.220;9.884;2023-03-15T02:39:26;2.23;;;1.17;;
16689;SDS011;8458;52.220;9.884;2023-03-15T02:41:53;4.90;;;1.30;;
16689;SDS011;8458;52.220;9.884;2023-03-15T02:44:22;3.87;;;1.20;;
16689;SDS011;8458;52.220;9.884;2023-03-15T02:46:56;3.77;;;1.10;;
16689;SDS011;8458;52.220;9.884;2023-03-15T02:49:27;6.97;;;1.30;;
16689;SDS011;8458;52.220;9.884;2023-03-15T02:51:57;3.20;;;1.10;;
16689;SDS011;8458;52.220;9.884;2023-03-15T02:54:23;4.27;;;1.43;;
16689;SDS011;8458;52.220;9.884;2023-03-15T02:56:50;4.17;;;1.40;;
16689;SDS011;8458;52.220;9.884;2023-03-15T02:59:17;5.47;;;1.30;;
16689;SDS011;8458;52.220;9.884;2023-03-15T03:01:44;5.83;;;1.57;;
16689;SDS011;8458;52.220;9.884;2023-03-15T03:04:12;4.13;;;1.20;;
16689;SDS011;8458;52.220;9.884;2023-03-15T03:06:38;4.27;;;1.57;;
16689;SDS011;8458;52.220;9.884;2023-03-15T03:09:07;2.93;;;1.20;;
16689;SDS011;8458;52.220;9.884;2023-03-15T03:11:34;5.53;;;1.60;;
16689;SDS011;8458;52.220;9.884;2023-03-15T03:14:01;3.43;;;1.40;;
16689;SDS011;8458;52.220;9.884;2023-03-15T03:16:27;4.50;;;1.50;;
16689;SDS011;8458;52.220;9.884;2023-03-15T03:18:54;3.63;;;1.47;;
16689;SDS011;8458;52.220;9.884;2023-03-15T03:21:22;4.30;;;1.43;;
16689;SDS011;8458;52.220;9.884;2023-03-15T03:23:48;5.73;;;1.67;;
16689;SDS011;8458;52.220;9.884;2023-03-15T03:26:16;6.40;;;2.10;;
16689;SDS011;8458;52.220;9.884;2023-03-15T03:28:44;2.77;;;1.83;;
16689;SDS011;8458;52.220;9.884;2023-03-15T03:31:15;5.63;;;2.00;;
16689;SDS011;8458;52.220;9.884;2023-03-15T03:33:43;3.77;;;2.27;;
16689;SDS011;8458;52.220;9.884;2023-03-15T03:36:09;4.83;;;2.80;;
16689;SDS011;8458;52.220;9.884;2023-03-15T03:38:38;6.90;;;2.97;;
16689;SDS011;8458;52.220;9.884;2023-03-15T03:41:05;4.77;;;2.90;;
16689;SDS011;8458;52.220;9.884;2023-03-15T03:43:32;5.37;;;2.73;;
16689;SDS011;8458;52.220;9.884;2023-03-15T03:45:58;4.47;;;3.30;;
16689;SDS011;8458;52.220;9.884;2023-03-15T03:48:25;4.73;;;3.03;;
16689;SDS011;8458;52.220;9.884;2023-03-15T03:50:51;4.40;;;3.13;;
16689;SDS011;8458;52.220;9.884;2023-03-15T03:53:18;5.17;;;3.43;;
16689;SDS011;8458;52.220;9.884;2023-03-15T03:55:46;4.27;;;2.97;;
16689;SDS011;8458;52.220;9.884;2023-03-15T03:58:12;5.43;;;3.37;;
16689;SDS011;8458;52.220;9.884;2023-03-15T04:00:39;3.77;;;3.27;;
16689;SDS011;8458;52.220;9.884;2023-03-15T04:03:05;3.80;;;3.13;;
16689;SDS011;8458;52.220;9.884;2023-03-15T04:05:32;4.13;;;3.40;;
16689;SDS011;8458;52.220;9.884;2023-03-15T04:07:59;3.60;;;3.07;;
16689;SDS011;8458;52.220;9.884;2023-03-15T04:10:26;3.70;;;3.40;;
16689;SDS011;8458;52.220;9.884;2023-03-15T04:12:54;3.87;;;3.43;;
16689;SDS011;8458;52.220;9.884;2023-03-15T04:15:21;3.17;;;2.87;;
16689;SDS011;8458;52.220;9.884;2023-03-15T04:17:49;3.80;;;3.50;;
16689;SDS011;8458;52.220;9.884;2023-03-15T04:20:20;5.23;;;4.10;;
16689;SDS011;8458;52.220;9.884;2023-03-15T04:22:46;4.53;;;4.13;;
16689;SDS011;8458;52.220;9.884;2023-03-15T04:25:13;4.93;;;4.43;;
16689;SDS011;8458;52.220;9.884;2023-03-15T04:27:40;4.47;;;4.07;;
16689;SDS011;8458;52.220;9.884;2023-03-15T04:30:08;5.70;;;3.80;;
16689;SDS011;8458;52.220;9.884;2023-03-15T04:32:36;4.23;;;3.53;;
16689;SDS011;8458;52.220;9.884;2023-03-15T04:35:03;7.17;;;4.10;;
16689;SDS011;8458;52.220;9.884;2023-03-15T04:37:30;4.77;;;4.17;;
16689;SDS011;8458;52.220;9.884;2023-03-15T04:39:57;4.03;;;3.47;;
16689;SDS011;8458;52.220;9.884;2023-03-15T04:42:23;3.50;;;3.20;;
16689;SDS011;8458;52.220;9.884;2023-03-15T04:44:51;3.97;;;3.10;;
16689;SDS011;8458;52.220;9.884;2023-03-15T04:47:19;3.83;;;3.00;;
16689;SDS011;8458;52.220;9.884;2023-03-15T04:49:46;5.27;;;3.03;;
16689;SDS011;8458;52.220;9.884;2023-03-15T04:52:13;6.40;;;4.00;;
16689;SDS011;8458;52.220;9.884;2023-03-15T04:54:39;3.90;;;3.57;;
16689;SDS011;8458;52.220;9.884;2023-03-15T04:57:06;4.43;;;4.03;;
16689;SDS011;8458;52.220;9.884;2023-03-15T04:59:32;3.77;;;3.47;;
16689;SDS011;8458;52.220;9.884;2023-03-15T05:01:59;4.77;;;3.07;;
16689;SDS011;8458;52.220;9.884;2023-03-15T05:04:26;3.67;;;2.63;;
16689;SDS011;8458;52.220;9.884;2023-03-15T05:06:53;5.40;;;2.43;;
16689;SDS011;8458;52.220;9.884;2023-03-15T05:09:19;2.50;;;2.30;;
16689;SDS011;8458;52.220;9.884;2023-03-15T05:11:46;4.47;;;2.47;;
16689;SDS011;8458;52.220;9.884;2023-03-15T05:14:12;2.60;;;2.37;;
16689;SDS011;8458;52.220;9.884;2023-03-15T05:16:39;3.10;;;2.50;;
16689;SDS011;8458;52.220;9.884;2023-03-15T05:19:07;3.20;;;2.07;;
16689;SDS011;8458;52.220;9.884;2023-03-15T05:21:35;2.90;;;1.87;;
16689;SDS011;8458;52.220;9.884;2023-03-15T05:24:01;2.33;;;1.97;;
16689;SDS011;8458;52.220;9.884;2023-03-15T05:26:28;2.93;;;2.20;;
16689;SDS011;8458;52.220;9.884;2023-03-15T05:28:54;3.33;;;2.67;;
16689;SDS011;8458;52.220;9.884;2023-03-15T05:31:21;4.17;;;2.20;;
16689;SDS011;8458;52.220;9.884;2023-03-15T05:33:47;2.33;;;1.83;;
16689;SDS011;8458;52.220;9.884;2023-03-15T05:36:14;2.40;;;2.20;;
16689;SDS011;8458;52.220;9.884;2023-03-15T05:38:43;3.60;;;1.90;;
16689;SDS011;8458;52.220;9.884;2023-03-15T05:41:10;3.37;;;2.30;;
16689;SDS011;8458;52.220;9.884;2023-03-15T05:43:41;2.90;;;2.27;;
16689;SDS011;8458;52.220;9.884;2023-03-15T05:46:08;3.10;;;2.10;;
16689;SDS011;8458;52.220;9.884;2023-03-15T05:48:35;2.90;;;2.60;;
16689;SDS011;8458;52.220;9.884;2023-03-15T05:51:01;3.07;;;2.50;;
16689;SDS011;8458;52.220;9.884;2023-03-15T05:53:28;3.20;;;2.33;;
16689;SDS011;8458;52.220;9.884;2023-03-15T05:55:56;3.57;;;2.17;;
16689;SDS011;8458;52.220;9.884;2023-03-15T05:58:22;2.93;;;2.20;;
16689;SDS011;8458;52.220;9.884;2023-03-15T06:00:49;4.07;;;2.43;;
16689;SDS011;8458;52.220;9.884;2023-03-15T06:03:15;3.03;;;2.10;;
16689;SDS011;8458;52.220;9.884;2023-03-15T06:05:42;2.60;;;2.30;;
16689;SDS011;8458;52.220;9.884;2023-03-15T06:08:08;2.63;;;2.43;;
16689;SDS011;8458;52.220;9.884;2023-03-15T06:10:35;2.77;;;2.37;;
16689;SDS011;8458;52.220;9.884;2023-03-15T06:13:03;2.47;;;2.27;;
16689;SDS011;8458;52.220;9.884;2023-03-15T06:15:29;2.23;;;2.03;;
16689;SDS011;8458;52.220;9.884;2023-03-15T06:17:56;2.30;;;2.10;;
16689;SDS011;8458;52.220;9.884;2023-03-15T06:20:22;2.83;;;1.97;;
16689;SDS011;8458;52.220;9.884;2023-03-15T06:22:48;3.97;;;2.10;;
16689;SDS011;8458;52.220;9.884;2023-03-15T06:25:15;4.30;;;2.23;;
16689;SDS011;8458;52.220;9.884;2023-03-15T06:27:42;2.97;;;2.07;;
16689;SDS011;8458;52.220;9.884;2023-03-15T06:30:10;2.40;;;1.73;;
16689;SDS011;8458;52.220;9.884;2023-03-15T06:32:37;2.83;;;2.43;;
16689;SDS011;8458;52.220;9.884;2023-03-15T06:35:03;3.77;;;2.17;;
16689;SDS011;8458;52.220;9.884;2023-03-15T06:37:31;2.13;;;1.80;;
16689;SDS011;8458;52.220;9.884;2023-03-15T06:39:59;2.43;;;2.23;;
16689;SDS011;8458;52.220;9.884;2023-03-15T06:42:28;1.97;;;1.87;;
16689;SDS011;8458;52.220;9.884;2023-03-15T06:44:54;2.30;;;2.10;;
16689;SDS011;8458;52.220;9.884;2023-03-15T06:47:22;1.80;;;1.70;;
16689;SDS011;8458;52.220;9.884;2023-03-15T06:49:49;2.67;;;1.67;;
16689;SDS011;8458;52.220;9.884;2023-03-15T06:52:15;3.10;;;1.60;;
16689;SDS011;8458;52.220;9.884;2023-03-15T06:54:42;2.00;;;1.80;;
16689;SDS011;8458;52.220;9.884;2023-03-15T06:57:08;3.23;;;2.10;;
16689;SDS011;8458;52.220;9.884;2023-03-15T06:59:35;3.50;;;2.10;;
16689;SDS011;8458;52.220;9.884;2023-03-15T07:02:02;3.63;;;2.40;;
16689;SDS011;8458;52.220;9.884;2023-03-15T07:04:30;2.63;;;2.33;;
16689;SDS011;8458;52.220;9.884;2023-03-15T07:06:56;4.63;;;2.40;;
16689;SDS011;8458;52.220;9.884;2023-03-15T07:09:22;2.17;;;1.97;;
16689;SDS011;8458;52.220;9.884;2023-03-15T07:11:49;2.40;;;2.20;;
16689;SDS011;8458;52.220;9.884;2023-03-15T07:14:15;2.40;;;2.10;;
16689;SDS011;8458;52.220;9.884;2023-03-15T07:16:42;2.47;;;1.83;;
16689;SDS011;8458;52.220;9.884;2023-03-15T07:19:08;2.90;;;2.60;;
16689;SDS011;8458;52.220;9.884;2023-03-15T07:21:36;2.63;;;2.00;;
16689;SDS011;8458;52.220;9.884;2023-03-15T07:24:03;2.67;;;1.87;;
16689;SDS011;8458;52.220;9.884;2023-03-15T07:26:29;2.70;;;2.47;;
16689;SDS011;8458;52.220;9.884;2023-03-15T07:28:56;3.57;;;2.23;;
16689;SDS011;8458;52.220;9.884;2023-03-15T07:31:22;3.33;;;2.57;;
16689;SDS011;8458;52.220;9.884;2023-03-15T07:33:49;2.90;;;2.70;;
16689;SDS011;8458;52.220;9.884;2023-03-15T07:36:15;2.73;;;2.10;;
16689;SDS011;8458;52.220;9.884;2023-03-15T07:38:43;2.37;;;2.07;;
16689;SDS011;8458;52.220;9.884;2023-03-15T07:41:10;2.60;;;2.30;;
16689;SDS011;8458;52.220;9.884;2023-03-15T07:43:36;3.40;;;2.20;;
16689;SDS011;8458;52.220;9.884;2023-03-15T07:46:03;2.53;;;2.00;;
16689;SDS011;8458;52.220;9.884;2023-03-15T07:48:30;3.27;;;2.43;;
16689;SDS011;8458;52.220;9.884;2023-03-15T07:50:57;2.87;;;2.67;;
16689;SDS011;8458;52.220;9.884;2023-03-15T07:53:24;3.37;;;2.17;;
16689;SDS011;8458;52.220;9.884;2023-03-15T07:55:52;2.60;;;2.40;;
16689;SDS011;8458;52.220;9.884;2023-03-15T07:58:18;2.83;;;2.20;;
16689;SDS011;8458;52.220;9.884;2023-03-15T08:00:45;2.60;;;2.40;;
16689;SDS011;8458;52.220;9.884;2023-03-15T08:03:11;2.97;;;2.73;;
16689;SDS011;8458;52.220;9.884;2023-03-15T08:05:38;3.27;;;3.00;;
16689;SDS011;8458;52.220;9.884;2023-03-15T08:08:05;2.93;;;2.70;;
16689;SDS011;8458;52.220;9.884;2023-03-15T08:10:31;3.13;;;2.50;;
16689;SDS011;8458;52.220;9.884;2023-03-15T08:12:59;3.23;;;2.00;;
16689;SDS011;8458;52.220;9.884;2023-03-15T08:15:25;2.83;;;1.70;;
16689;SDS011;8458;52.220;9.884;2023-03-15T08:17:52;2.17;;;1.97;;
16689;SDS011;8458;52.220;9.884;2023-03-15T08:20:18;3.10;;;1.77;;
16689;SDS011;8458;52.220;9.884;2023-03-15T08:22:45;2.50;;;2.20;;
16689;SDS011;8458;52.220;9.884;2023-03-15T08:25:13;2.80;;;1.50;;
16689;SDS011;8458;52.220;9.884;2023-03-15T08:27:42;2.20;;;1.70;;
16689;SDS011;8458;52.220;9.884;2023-03-15T08:30:11;1.80;;;1.40;;
16689;SDS011;8458;52.220;9.884;2023-03-15T08:32:40;2.23;;;1.30;;
16689;SDS011;8458;52.220;9.884;2023-03-15T08:35:08;3.57;;;1.63;;
16689;SDS011;8458;52.220;9.884;2023-03-15T08:37:36;2.90;;;1.87;;
16689;SDS011;8458;52.220;9.884;2023-03-15T08:40:04;2.40;;;1.50;;
16689;SDS011;8458;52.220;9.884;2023-03-15T08:42:33;2.93;;;1.63;;
16689;SDS011;8458;52.220;9.884;2023-03-15T08:45:00;1.83;;;1.30;;
16689;SDS011;8458;52.220;9.884;2023-03-15T08:47:28;2.10;;;1.40;;
16689;SDS011;8458;52.220;9.884;2023-03-15T08:49:54;3.80;;;1.50;;
16689;SDS011;8458;52.220;9.884;2023-03-15T08:52:21;2.30;;;1.27;;
16689;SDS011;8458;52.220;9.884;2023-03-15T08:54:47;2.27;;;1.57;;
16689;SDS011;8458;52.220;9.884;2023-03-15T08:57:14;2.70;;;1.40;;
16689;SDS011;8458;52.220;9.884;2023-03-15T08:59:41;3.50;;;1.40;;
16689;SDS011;8458;52.220;9.884;2023-03-15T09:02:08;3.70;;;1.60;;
16689;SDS011;8458;52.220;9.884;2023-03-15T09:04:36;2.00;;;1.50;;
16689;SDS011;8458;52.220;9.884;2023-03-15T09:07:03;2.07;;;1.57;;
16689;SDS011;8458;52.220;9.884;2023-03-15T09:09:30;2.23;;;1.40;;
16689;SDS011;8458;52.220;9.884;2023-03-15T09:11:57;3.70;;;1.47;;
16689;SDS011;8458;52.220;9.884;2023-03-15T09:14:24;2.50;;;1.27;;
16689;SDS011;8458;52.220;9.884;2023-03-15T09:16:50;3.53;;;1.97;;
16689;SDS011;8458;52.220;9.884;2023-03-15T09:19:17;2.43;;;1.10;;
16689;SDS011;8458;52.220;9.884;2023-03-15T09:21:44;2.83;;;1.50;;
16689;SDS011;8458;52.220;9.884;2023-03-15T09:24:11;3.53;;;1.50;;
16689;SDS011;8458;52.220;9.884;2023-03-15T09:26:38;3.80;;;1.97;;
16689;SDS011;8458;52.220;9.884;2023-03-15T09:29:05;4.77;;;1.87;;
16689;SDS011;8458;52.220;9.884;2023-03-15T09:31:32;3.70;;;1.50;;
16689;SDS011;8458;52.220;9.884;2023-03-15T09:33:59;2.67;;;1.00;;
16689;SDS011;8458;52.220;9.884;2023-03-15T09:36:25;3.20;;;1.10;;
16689;SDS011;8458;52.220;9.884;2023-03-15T09:38:53;3.27;;;1.17;;
16689;SDS011;8458;52.220;9.884;2023-03-15T09:41:33;3.67;;;1.20;;
16689;SDS011;8458;52.220;9.884;2023-03-15T09:44:10;4.03;;;1.60;;
16689;SDS011;8458;52.220;9.884;2023-03-15T09:46:42;4.87;;;1.70;;
16689;SDS011;8458;52.220;9.884;2023-03-15T09:49:25;4.17;;;1.93;;
16689;SDS011;8458;52.220;9.884;2023-03-15T09:51:59;4.53;;;1.30;;
16689;SDS011;8458;52.220;9.884;2023-03-15T09:54:34;3.93;;;1.17;;
16689;SDS011;8458;52.220;9.884;2023-03-15T09:57:08;3.57;;;1.20;;
16689;SDS011;8458;52.220;9.884;2023-03-15T09:59:38;4.90;;;1.30;;
16689;SDS011;8458;52.220;9.884;2023-03-15T10:02:12;2.33;;;1.30;;
16689;SDS011;8458;52.220;9.884;2023-03-15T10:04:44;3.10;;;1.30;;
16689;SDS011;8458;52.220;9.884;2023-03-15T10:07:13;2.27;;;1.03;;
16689;SDS011;8458;52.220;9.884;2023-03-15T10:09:42;2.53;;;0.87;;
16689;SDS011;8458;52.220;9.884;2023-03-15T10:12:11;2.73;;;0.90;;
16689;SDS011;8458;52.220;9.884;2023-03-15T10:14:46;3.47;;;1.00;;
16689;SDS011;8458;52.220;9.884;2023-03-15T10:17:23;5.13;;;1.33;;
16689;SDS011;8458;52.220;9.884;2023-03-15T10:19:59;2.67;;;1.00;;
16689;SDS011;8458;52.220;9.884;2023-03-15T10:22:34;3.47;;;1.60;;
16689;SDS011;8458;52.220;9.884;2023-03-15T10:25:10;4.03;;;0.90;;
16689;SDS011;8458;52.220;9.884;2023-03-15T10:27:41;3.20;;;1.20;;
16689;SDS011;8458;52.220;9.884;2023-03-15T10:30:14;3.83;;;1.53;;
16689;SDS011;8458;52.220;9.884;2023-03-15T10:32:43;3.80;;;1.17;;
16689;SDS011;8458;52.220;9.884;2023-03-15T10:35:15;3.80;;;1.37;;
16689;SDS011;8458;52.220;9.884;2023-03-15T10:37:43;2.47;;;0.80;;
16689;SDS011;8458;52.220;9.884;2023-03-15T10:40:12;3.93;;;1.77;;
16689;SDS011;8458;52.220;9.884;2023-03-15T10:42:41;5.70;;;3.30;;
16689;SDS011;8458;52.220;9.884;2023-03-15T10:45:17;5.13;;;4.03;;
16689;SDS011;8458;52.220;9.884;2023-03-15T10:47:45;3.77;;;1.33;;
16689;SDS011;8458;52.220;9.884;2023-03-15T10:50:15;3.57;;;1.00;;
16689;SDS011;8458;52.220;9.884;2023-03-15T10:52:44;3.30;;;1.10;;
16689;SDS011;8458;52.220;9.884;2023-03-15T10:55:13;4.20;;;1.10;;
16689;SDS011;8458;52.220;9.884;2023-03-15T10:57:49;4.23;;;0.83;;
16689;SDS011;8458;52.220;9.884;2023-03-15T11:00:25;5.43;;;0.97;;
16689;SDS011;8458;52.220;9.884;2023-03-15T11:02:59;3.70;;;1.17;;
16689;SDS011;8458;52.220;9.884;2023-03-15T11:05:28;3.27;;;0.93;;
16689;SDS011;8458;52.220;9.884;2023-03-15T11:07:56;3.43;;;0.97;;
16689;SDS011;8458;52.220;9.884;2023-03-15T11:10:26;3.17;;;1.00;;
16689;SDS011;8458;52.220;9.884;2023-03-15T11:13:10;3.00;;;0.87;;
16689;SDS011;8458;52.220;9.884;2023-03-15T11:15:38;3.43;;;0.80;;
16689;SDS011;8458;52.220;9.884;2023-03-15T11:18:05;5.83;;;1.10;;
16689;SDS011;8458;52.220;9.884;2023-03-15T11:20:36;2.93;;;0.60;;
16689;SDS011;8458;52.220;9.884;2023-03-15T11:23:07;4.17;;;0.80;;
16689;SDS011;8458;52.220;9.884;2023-03-15T11:25:41;2.97;;;0.87;;
16689;SDS011;8458;52.220;9.884;2023-03-15T11:28:10;2.43;;;0.80;;
16689;SDS011;8458;52.220;9.884;2023-03-15T11:30:42;2.17;;;0.50;;
16689;SDS011;8458;52.220;9.884;2023-03-15T11:33:13;2.77;;;0.80;;
16689;SDS011;8458;52.220;9.884;2023-03-15T11:35:51;2.40;;;1.10;;
16689;SDS011;8458;52.220;9.884;2023-03-15T11:38:22;4.20;;;0.70;;
16689;SDS011;8458;52.220;9.884;2023-03-15T11:40:55;2.70;;;0.70;;
16689;SDS011;8458;52.220;9.884;2023-03-15T11:43:24;1.50;;;0.63;;
16689;SDS011;8458;52.220;9.884;2023-03-15T11:45:55;3.20;;;1.00;;
16689;SDS011;8458;52.220;9.884;2023-03-15T11:48:24;1.90;;;0.67;;
16689;SDS011;8458;52.220;9.884;2023-03-15T11:50:54;2.47;;;0.90;;
16689;SDS011;8458;52.220;9.884;2023-03-15T11:53:23;2.07;;;0.60;;
16689;SDS011;8458;52.220;9.884;2023-03-15T11:56:02;1.00;;;0.50;;
16689;SDS011;8458;52.220;9.884;2023-03-15T11:58:59;2.70;;;0.60;;
16689;SDS011;8458;52.220;9.884;2023-03-15T12:01:30;1.17;;;0.60;;
16689;SDS011;8458;52.220;9.884;2023-03-15T12:07:30;2.10;;;0.80;;
16689;SDS011;8458;52.220;9.884;2023-03-15T12:13:05;1.97;;;0.70;;
16689;SDS011;8458;52.220;9.884;2023-03-15T12:15:42;2.10;;;0.60;;
16689;SDS011;8458;52.220;9.884;2023-03-15T12:21:08;1.97;;;0.67;;
16689;SDS011;8458;52.220;9.884;2023-03-15T12:23:43;3.53;;;0.87;;
16689;SDS011;8458;52.220;9.884;2023-03-15T12:26:22;3.13;;;0.90;;
16689;SDS011;8458;52.220;9.884;2023-03-15T12:28:51;1.87;;;0.57;;
16689;SDS011;8458;52.220;9.884;2023-03-15T12:31:40;2.23;;;0.60;;
16689;SDS011;8458;52.220;9.884;2023-03-15T12:34:12;3.63;;;0.70;;
16689;SDS011;8458;52.220;9.884;2023-03-15T12:36:41;2.00;;;0.80;;
16689;SDS011;8458;52.220;9.884;2023-03-15T12:39:28;2.83;;;0.70;;
16689;SDS011;8458;52.220;9.884;2023-03-15T12:42:02;2.87;;;0.67;;
16689;SDS011;8458;52.220;9.884;2023-03-15T12:44:36;2.20;;;0.60;;
16689;SDS011;8458;52.220;9.884;2023-03-15T12:47:04;1.90;;;0.70;;
16689;SDS011;8458;52.220;9.884;2023-03-15T12:49:32;3.30;;;0.70;;
16689;SDS011;8458;52.220;9.884;2023-03-15T12:52:02;1.93;;;0.60;;
16689;SDS011;8458;52.220;9.884;2023-03-15T12:54:33;2.00;;;0.70;;
16689;SDS011;8458;52.220;9.884;2023-03-15T12:57:08;2.47;;;0.40;;
16689;SDS011;8458;52.220;9.884;2023-03-15T12:59:37;1.00;;;0.50;;
16689;SDS011;8458;52.220;9.884;2023-03-15T13:02:17;1.00;;;0.50;;
16689;SDS011;8458;52.220;9.884;2023-03-15T13:04:56;1.17;;;0.47;;
16689;SDS011;8458;52.220;9.884;2023-03-15T13:07:26;1.70;;;0.80;;
16689;SDS011;8458;52.220;9.884;2023-03-15T13:10:19;1.10;;;0.50;;
16689;SDS011;8458;52.220;9.884;2023-03-15T13:12:57;1.07;;;0.50;;
16689;SDS011;8458;52.220;9.884;2023-03-15T13:15:30;1.07;;;0.80;;
16689;SDS011;8458;52.220;9.884;2023-03-15T13:18:02;1.30;;;0.60;;
16689;SDS011;8458;52.220;9.884;2023-03-15T13:20:41;1.20;;;0.30;;
16689;SDS011;8458;52.220;9.884;2023-03-15T13:23:17;0.60;;;0.40;;
16689;SDS011;8458;52.220;9.884;2023-03-15T13:25:57;1.07;;;0.33;;
16689;SDS011;8458;52.220;9.884;2023-03-15T13:28:39;1.37;;;0.80;;
16689;SDS011;8458;52.220;9.884;2023-03-15T13:31:11;0.87;;;0.50;;
16689;SDS011;8458;52.220;9.884;2023-03-15T13:33:45;1.87;;;0.33;;
16689;SDS011;8458;52.220;9.884;2023-03-15T13:36:13;1.00;;;0.40;;
16689;SDS011;8458;52.220;9.884;2023-03-15T13:38:41;1.00;;;0.50;;
16689;SDS011;8458;52.220;9.884;2023-03-15T13:41:17;1.97;;;0.70;;
16689;SDS011;8458;52.220;9.884;2023-03-15T13:43:45;1.20;;;0.80;;
16689;SDS011;8458;52.220;9.884;2023-03-15T13:46:13;2.17;;;0.70;;
16689;SDS011;8458;52.220;9.884;2023-03-15T13:48:42;1.33;;;0.40;;
16689;SDS011;8458;52.220;9.884;2023-03-15T13:51:11;1.27;;;0.57;;
16689;SDS011;8458;52.220;9.884;2023-03-15T13:53:44;0.83;;;0.60;;
16689;SDS011;8458;52.220;9.884;2023-03-15T13:56:14;1.87;;;0.60;;
16689;SDS011;8458;52.220;9.884;2023-03-15T13:58:44;1.40;;;0.37;;
16689;SDS011;8458;52.220;9.884;2023-03-15T14:01:12;1.63;;;0.50;;
16689;SDS011;8458;52.220;9.884;2023-03-15T14:03:41;1.00;;;0.30;;
16689;SDS011;8458;52.220;9.884;2023-03-15T14:06:19;2.27;;;0.60;;
16689;SDS011;8458;52.220;9.884;2023-03-15T14:08:47;1.70;;;0.50;;
16689;SDS011;8458;52.220;9.884;2023-03-15T14:11:18;1.23;;;0.40;;
16689;SDS011;8458;52.220;9.884;2023-03-15T14:13:57;0.97;;;0.37;;
16689;SDS011;8458;52.220;9.884;2023-03-15T14:16:31;1.67;;;0.60;;
16689;SDS011;8458;52.220;9.884;2023-03-15T14:19:15;1.77;;;0.50;;
16689;SDS011;8458;52.220;9.884;2023-03-15T14:21:45;1.17;;;0.50;;
16689;SDS011;8458;52.220;9.884;2023-03-15T14:24:15;1.30;;;0.33;;
16689;SDS011;8458;52.220;9.884;2023-03-15T14:26:50;1.07;;;0.30;;
16689;SDS011;8458;52.220;9.884;2023-03-15T14:29:19;0.97;;;0.50;;
16689;SDS011;8458;52.220;9.884;2023-03-15T14:31:50;0.60;;;0.40;;
16689;SDS011;8458;52.220;9.884;2023-03-15T14:34:19;1.83;;;0.50;;
16689;SDS011;8458;52.220;9.884;2023-03-15T14:36:49;0.77;;;0.37;;
16689;SDS011;8458;52.220;9.884;2023-03-15T14:39:23;0.60;;;0.40;;
16689;SDS011;8458;52.220;9.884;2023-03-15T14:41:53;1.23;;;0.40;;
16689;SDS011;8458;52.220;9.884;2023-03-15T14:44:20;1.47;;;0.40;;
16689;SDS011;8458;52.220;9.884;2023-03-15T14:46:47;1.43;;;0.50;;
16689;SDS011;8458;52.220;9.884;2023-03-15T14:49:16;1.53;;;0.50;;
16689;SDS011;8458;52.220;9.884;2023-03-15T14:51:47;1.63;;;0.60;;
16689;SDS011;8458;52.220;9.884;2023-03-15T14:54:18;1.17;;;0.40;;
16689;SDS011;8458;52.220;9.884;2023-03-15T14:56:45;1.00;;;0.50;;
16689;SDS011;8458;52.220;9.884;2023-03-15T14:59:13;1.73;;;0.53;;
16689;SDS011;8458;52.220;9.884;2023-03-15T15:01:40;1.77;;;0.80;;
16689;SDS011;8458;52.220;9.884;2023-03-15T15:04:10;0.80;;;0.43;;
16689;SDS011;8458;52.220;9.884;2023-03-15T15:06:37;1.37;;;0.50;;
16689;SDS011;8458;52.220;9.884;2023-03-15T15:09:04;1.33;;;0.50;;
16689;SDS011;8458;52.220;9.884;2023-03-15T15:11:30;0.90;;;0.50;;
16689;SDS011;8458;52.220;9.884;2023-03-15T15:13:57;2.10;;;0.57;;
16689;SDS011;8458;52.220;9.884;2023-03-15T15:16:25;1.63;;;0.50;;
16689;SDS011;8458;52.220;9.884;2023-03-15T15:18:51;1.60;;;0.60;;
16689;SDS011;8458;52.220;9.884;2023-03-15T15:21:18;1.40;;;0.70;;